Terminal Aerodrome Forecast
Issued by NWS

Current Version | Previous Version | Text Only | Print | Product List | Glossary On
Versions: 1 2 3 4 5 6 7 8 9 10 11 12 13 14 15 16 17 18 19
000
FTUS42 KTBW 130500
TAFPGD
TAF
KPGD 130530Z 1306/1406 VRB04KT P6SM FEW005 SCT250
     FM131600 14006KT P6SM VCTS SCT035CB SCT250
     FM131800 24006KT P6SM VCTS SCT030CB BKN070
     FM140300 VRB06KT P6SM SCT040 BKN250=

USA.gov is the U.S. government's official web portal to all federal, state and local government web resources and services.